• Join FlightAware (Why Join?)
  • Login
  • US Flag 
04:18AM EDT


 

Airport Tracker/Info


-or-


 

Live Flight TrackerFlight Track Log ✈ SWA691 ✈ 30-Aug-2013 ✈ KSAN - KSFO

Flight Track Log - Related Links

Times and Time Zones

All times are in EDT time to prevent confusion due to time zone crossing. See the SWA691 flight status page for this flight to view local times or setup timezone preferences in your user account.

Time Position Orientation Groundspeed Altitude Reporting Facility
EDT Latitude Longitude Course Direction KTS MPH feet Rate Location/Type
09:48AM 32.7428 -117.2125 303° West 161 185 1,200  Level Los Angeles Center
09:49AM 32.7731 -117.2683 303° West 200 230 3,900 3,120 Climbing Los Angeles Center
09:50AM 32.8169 -117.3478 303° West 258 297 7,600 3,480 Climbing Los Angeles Center
09:51AM 32.8636 -117.4331 303° West 295 339 11,100 3,300 Climbing Los Angeles Center
09:52AM 32.9297 -117.5236 311° West 355 409 14,400 3,300 Climbing Los Angeles Center
09:53AM 33.0175 -117.5889 328° Northwest 368 423 17,900 3,300 Climbing Los Angeles Center
09:54AM 33.0853 -117.6875 309° West 384 442 21,200 2,460 Climbing Los Angeles Center
09:55AM 33.1542 -117.7939 308° West 398 458 23,000 960 Climbing Los Angeles Center
09:56AM 33.1997 -117.8894 300° West 407 468 23,200 480 Climbing Los Angeles Center
09:57AM 33.2500 -118.0436 291° West 413 475 24,000 360 Climbing Los Angeles Center
09:58AM 33.2922 -118.1739 291° West 418 481 24,000  Level Los Angeles Center
09:59AM 33.3272 -118.2775 292° West 417 480 24,000 1,080 Level Los Angeles Center
10:00AM 33.4097 -118.4456 300° West 418 481 26,200 2,160 Climbing Los Angeles Center
10:01AM 33.4964 -118.5469 316° Northwest 430 495 28,500 2,040 Climbing Los Angeles Center
10:02AM 33.5844 -118.6528 315° West 441 507 30,500 1,980 Climbing Los Angeles Center
10:03AM 33.6758 -118.7631 315° West 457 526 32,600 1,980 Climbing Los Angeles Center
10:04AM 33.7481 -118.8489 315° West 456 525 34,600 2,160 Climbing Los Angeles Center
10:05AM 33.8553 -118.9778 315° West 454 522 37,100 2,040 Climbing Los Angeles Center
10:06AM 33.9433 -119.0839 315° West 448 516 38,800 1,380 Climbing Los Angeles Center
10:07AM 34.0319 -119.1906 315° West 449 517 40,000 540 Climbing Los Angeles Center
10:08AM 34.1189 -119.2969 315° West 447 514 40,000  Level Los Angeles Center
10:09AM 34.2056 -119.4028 315° West 443 510 40,000  Level Los Angeles Center
10:11AM 34.3275 -119.5506 315° West 443 510 40,000  Level Los Angeles Center
10:12AM 34.4300 -119.6778 314° West 442 509 40,000  Level Los Angeles Center
10:13AM 34.5156 -119.7825 315° West 438 504 40,000  Level Los Angeles Center
10:14AM 34.6075 -119.8825 318° Northwest 436 502 40,000  Level Los Angeles Center
10:15AM 34.7000 -119.9794 319° Northwest 438 504 40,000  Level Los Angeles Center
10:16AM 34.7911 -120.0781 318° Northwest 438 504 40,000  Level Los Angeles Center
10:17AM 34.8836 -120.1772 319° Northwest 436 502 40,000  Level Los Angeles Center
10:18AM 34.9722 -120.2772 317° Northwest 438 504 40,000  Level Los Angeles Center
10:19AM 35.0614 -120.3767 318° Northwest 437 503 40,000  Level Los Angeles Center
10:20AM 35.1700 -120.4978 318° Northwest 446 513 40,000  Level Los Angeles Center
10:21AM 35.2806 -120.6231 317° Northwest 453 521 40,000  Level Los Angeles Center
10:22AM 35.3692 -120.7211 318° Northwest 448 516 40,000  Level Los Angeles Center
10:23AM 35.4644 -120.8156 321° Northwest 446 513 40,000  Level Los Angeles Center
10:24AM 35.5642 -120.9011 325° Northwest 441 507 40,000  Level Los Angeles Center
10:25AM 35.6547 -120.9797 325° Northwest 440 506 40,000  Level Oakland Center
10:26AM 35.7533 -121.0661 325° Northwest 436 502 40,000 -420 Level Oakland Center
10:27AM 35.8506 -121.1531 324° Northwest 432 497 39,200 -1,620 Descending Oakland Center
10:28AM 35.9461 -121.2394 324° Northwest 426 490 36,800 -2,520 Descending Oakland Center
10:29AM 36.0431 -121.3242 325° Northwest 428 493 34,100 -2,460 Descending Oakland Center
10:30AM 36.1389 -121.4100 324° Northwest 425 489 31,800 -2,220 Descending Oakland Center
10:31AM 36.2303 -121.4925 324° Northwest 409 471 29,600 -2,340 Descending Oakland Center
10:32AM 36.3364 -121.5897 324° Northwest 394 453 27,100 -2,220 Descending Oakland Center
10:33AM 36.4225 -121.6667 324° Northwest 384 442 25,100 -2,040 Descending Oakland Center
10:34AM 36.5094 -121.7461 324° Northwest 389 448 23,000 -2,220 Descending Oakland Center
10:35AM 36.6092 -121.8381 324° Northwest 416 479 20,600 -1,500 Descending Oakland Center
10:36AM 36.6986 -121.9211 323° Northwest 403 464 20,000 -420 Descending Oakland Center
10:37AM 36.7667 -121.9667 332° Northwest 395 455 19,900 -1,620 Descending Northern Cal TRACON
10:38AM 36.8833 -122.0000 347° North 402 463 17,300 -2,820 Descending Northern Cal TRACON
10:39AM 36.9833 -122.0333 345° North 391 450 14,300 -3,300 Descending Northern Cal TRACON
10:40AM 37.0833 -122.0500 352° North 401 461 10,700 -2,280 Descending Northern Cal TRACON
10:41AM 37.1833 -122.0833 345° North 344 396 9,800 -1,020 Descending Northern Cal TRACON
10:42AM 37.2667 -122.1000 351° North 287 330 8,800 -1,260 Descending Northern Cal TRACON
10:42AM 37.2897 -122.1075 345° North 294 338 8,000 -1,680 Descending Oakland Center
10:43AM 37.3661 -122.1286 348° North 283 326 6,200 -1,680 Descending Oakland Center
10:44AM 37.4547 -122.1528 348° North 275 316 4,600 -1,560 Descending Oakland Center
10:45AM 37.5147 -122.1719 346° North 237 273 3,100 -1,200 Descending Oakland Center
10:46AM 37.5514 -122.2097 321° Northwest 190 219 2,200 -660 Descending Oakland Center
10:48AM 37.5681 -122.2514 297° West 157 181 1,800 -540 Descending Oakland Center
10:49AM 37.5844 -122.2886 299° West 136 157 1,200 -660 Descending Oakland Center
10:50AM 37.6008 -122.3272 298° West 128 147 500 -600 Descending Oakland Center
10:51AM 37.6197 -122.3711 299° West 127 146 100 -420 Descending Oakland Center
10:53AM 37.6167 -122.3667 322° Northwest  Level FlightAware Approximate